Terminal Aerodrome Forecast
Issued by NWS Pueblo, CO

Home | Current Version | Previous Version | Text Only | Print | Product List | Glossary On
Versions: 1 2 3 4 5 6 7 8 9 10 11 12 13 14 15 16 17 18 19
000
FTUS45 KPUB 281720
TAFPUB
TAF
KPUB 281720Z 2818/2918 10010G20KT P6SM VCSH OVC035
     FM282000 08012KT P6SM VCSH SCT020 OVC040
      TEMPO 2822/2902 5SM -SHRASN BKN020
     FM290300 05012KT 3SM -SHRASN BR OVC020=

USA.gov is the U.S. government's official web portal to all federal, state and local government web resources and services.